createdAt,value
2019-05-18T00:04:55.997Z,13.6
2019-05-18T00:09:55.949Z,13.5
2019-05-18T00:14:56.101Z,13.5
2019-05-18T00:19:55.720Z,13.9
2019-05-18T00:24:55.901Z,13.9
2019-05-18T00:29:55.799Z,13.7
2019-05-18T00:34:55.760Z,13.3
2019-05-18T00:39:55.917Z,13.3
2019-05-18T00:44:55.950Z,13.4
2019-05-18T00:49:55.942Z,13.3
2019-05-18T00:54:56.035Z,13.2
2019-05-18T00:59:56.008Z,13.3
2019-05-18T01:04:55.968Z,13.2
2019-05-18T01:09:55.617Z,13.2
2019-05-18T01:14:55.944Z,13.1
2019-05-18T01:19:56.098Z,13.1
2019-05-18T01:24:56.061Z,13.1
2019-05-18T01:29:55.809Z,13.1
2019-05-18T01:34:55.772Z,13
2019-05-18T01:39:55.746Z,13
2019-05-18T01:44:55.930Z,13.1
2019-05-18T01:49:55.954Z,13
2019-05-18T01:54:55.954Z,13.4
2019-05-18T01:59:55.642Z,13.3
2019-05-18T02:04:55.816Z,13.2
2019-05-18T02:09:55.537Z,12.8
2019-05-18T02:14:55.831Z,12.5
2019-05-18T02:19:55.782Z,12.8
2019-05-18T02:24:55.592Z,12.7
2019-05-18T02:29:55.568Z,12.6
2019-05-18T02:34:55.655Z,12.4
2019-05-18T02:39:55.707Z,12.2
2019-05-18T02:44:55.890Z,12.2
2019-05-18T02:49:55.595Z,12.2
2019-05-18T02:54:55.655Z,12.3
2019-05-18T02:59:55.788Z,12.3
2019-05-18T03:04:55.917Z,12.1
2019-05-18T03:09:55.815Z,12.2
2019-05-18T03:14:55.965Z,12.3
2019-05-18T03:19:55.548Z,12.4
2019-05-18T03:24:55.754Z,12.4
2019-05-18T03:29:56.003Z,12.4
2019-05-18T03:34:55.644Z,12.2
2019-05-18T03:39:55.569Z,12
2019-05-18T03:44:55.713Z,12.2
2019-05-18T03:49:55.940Z,12.3
2019-05-18T03:54:55.849Z,12.3
2019-05-18T03:59:55.692Z,12.3
2019-05-18T04:04:55.921Z,12.4
2019-05-18T04:09:56.125Z,12.2
2019-05-18T04:14:55.977Z,12.3
2019-05-18T04:19:55.875Z,12.3
2019-05-18T04:24:55.436Z,12.3
2019-05-18T04:29:55.843Z,12.4
2019-05-18T04:34:55.543Z,12.2
2019-05-18T04:39:55.775Z,12.3
2019-05-18T04:44:55.685Z,12.4
2019-05-18T04:50:05.353Z,12.6
2019-05-18T04:54:55.840Z,12.7
2019-05-18T04:59:55.629Z,12.8
2019-05-18T05:04:56.742Z,12.8
2019-05-18T05:09:55.734Z,12.9
2019-05-18T05:14:55.788Z,13
2019-05-18T05:19:55.531Z,13.1
2019-05-18T05:24:55.809Z,13.2
2019-05-18T05:29:55.679Z,13.4
2019-05-18T05:34:55.731Z,13.5
2019-05-18T05:39:55.258Z,13.7
2019-05-18T05:44:55.586Z,13.8
2019-05-18T05:49:55.366Z,13.8
2019-05-18T05:54:55.570Z,13.9
2019-05-18T05:59:55.408Z,13.9
2019-05-18T06:04:55.497Z,14
2019-05-18T06:09:55.690Z,14.7
2019-05-18T06:14:55.309Z,14.6
2019-05-18T06:19:55.275Z,14.7
2019-05-18T06:24:55.868Z,14.9
2019-05-18T06:29:55.322Z,14.9
2019-05-18T06:34:55.328Z,15.2
2019-05-18T06:39:55.170Z,15.4
2019-05-18T06:44:55.334Z,15.4
2019-05-18T06:49:55.332Z,15.7
2019-05-18T06:54:55.150Z,16
2019-05-18T06:59:55.507Z,16.5
2019-05-18T07:04:55.116Z,16.6
2019-05-18T07:09:55.552Z,16.9
2019-05-18T07:14:55.114Z,16.8
2019-05-18T07:19:55.155Z,16.3
2019-05-18T07:24:55.483Z,16.8
2019-05-18T07:29:55.527Z,16.9
2019-05-18T07:34:55.151Z,16.8
2019-05-18T07:39:55.254Z,16.5
2019-05-18T07:44:55.261Z,16.6
2019-05-18T07:49:55.200Z,16.8
2019-05-18T07:54:55.176Z,17.4
2019-05-18T07:59:55.277Z,17.1
2019-05-18T08:04:55.218Z,17.2
2019-05-18T08:09:55.339Z,17.6
2019-05-18T08:14:55.134Z,17.8
2019-05-18T08:19:55.201Z,17.9
2019-05-18T08:24:55.109Z,17.9
2019-05-18T08:29:55.249Z,18
2019-05-18T08:34:55.215Z,18.4
2019-05-18T08:39:55.014Z,18.6
2019-05-18T08:44:55.276Z,18.4
2019-05-18T08:49:55.145Z,17.9
2019-05-18T08:54:55.318Z,18.1
2019-05-18T08:59:55.217Z,18.7
2019-05-18T09:04:55.073Z,18.5
2019-05-18T09:09:55.390Z,18.3
2019-05-18T09:14:55.229Z,18.5
2019-05-18T09:19:55.092Z,18.8
2019-05-18T09:24:55.319Z,18.9
2019-05-18T09:29:55.153Z,19
2019-05-18T09:34:55.082Z,19.1
2019-05-18T09:39:55.340Z,18.7
2019-05-18T09:44:55.060Z,19
2019-05-18T09:49:54.933Z,19.5
2019-05-18T09:54:54.881Z,19.6
2019-05-18T09:59:54.975Z,20.1
2019-05-18T10:04:55.095Z,20.6
2019-05-18T10:09:55.212Z,20.6
2019-05-18T10:14:55.211Z,20.3
2019-05-18T10:19:54.948Z,20.8
2019-05-18T10:24:54.842Z,21
2019-05-18T10:29:55.178Z,21
2019-05-18T10:34:54.862Z,21.4
2019-05-18T10:39:55.051Z,21.5
2019-05-18T10:44:55.025Z,21.5
2019-05-18T10:49:54.985Z,21.6
2019-05-18T10:54:54.832Z,21.8
2019-05-18T10:59:55.006Z,21.5
2019-05-18T11:04:54.966Z,21.9
2019-05-18T11:09:55.144Z,22.2
2019-05-18T11:14:55.196Z,22.2
2019-05-18T11:19:55.172Z,22.3
2019-05-18T11:24:54.743Z,22.5
2019-05-18T11:29:55.109Z,22.6
2019-05-18T11:34:54.953Z,22.8
2019-05-18T11:39:55.081Z,22.8
2019-05-18T11:44:54.985Z,23.3
2019-05-18T11:49:54.987Z,23.1
2019-05-18T11:54:55.124Z,23
2019-05-18T11:59:55.117Z,22.3
2019-05-18T12:04:54.801Z,22.7
2019-05-18T12:09:55.091Z,22.8
2019-05-18T12:14:54.741Z,22.5
2019-05-18T12:19:55.045Z,22.7
2019-05-18T12:24:54.919Z,22.4
2019-05-18T12:29:54.821Z,22
2019-05-18T12:34:54.763Z,22.2
2019-05-18T12:39:54.943Z,22.1
2019-05-18T12:44:55.053Z,22.6
2019-05-18T12:49:54.838Z,23.3
2019-05-18T12:54:54.777Z,23.2
2019-05-18T12:59:54.956Z,23.2
2019-05-18T13:04:54.735Z,23.3
2019-05-18T13:09:55.005Z,23.5
2019-05-18T13:14:54.841Z,23.3
2019-05-18T13:19:54.941Z,23
2019-05-18T13:24:54.641Z,23
2019-05-18T13:29:54.898Z,22.7
2019-05-18T13:34:55.105Z,22.4
2019-05-18T13:39:54.661Z,22.7
2019-05-18T13:44:54.803Z,23
2019-05-18T13:49:54.748Z,22.9
2019-05-18T13:55:03.908Z,23.1
2019-05-18T13:59:54.825Z,22.5
2019-05-18T14:04:54.822Z,22.2
2019-05-18T14:09:54.877Z,22.4
2019-05-18T14:14:54.806Z,22.3
2019-05-18T14:19:54.636Z,21.8
2019-05-18T14:24:54.511Z,21.7
2019-05-18T14:29:54.939Z,21.4
2019-05-18T14:34:54.535Z,21.3
2019-05-18T14:39:54.800Z,21.5
2019-05-18T14:44:54.615Z,21.4
2019-05-18T14:49:54.895Z,21.4
2019-05-18T14:54:54.587Z,21.3
2019-05-18T14:59:54.921Z,21.3
2019-05-18T15:04:56.937Z,21.7
2019-05-18T15:09:54.800Z,21.6
2019-05-18T15:14:54.625Z,21.6
2019-05-18T15:19:54.863Z,22.1
2019-05-18T15:24:54.783Z,22.8
2019-05-18T15:29:54.743Z,23
2019-05-18T15:34:54.570Z,22.3
2019-05-18T15:39:54.841Z,22.2
2019-05-18T15:44:54.410Z,22.1
2019-05-18T15:49:54.685Z,22.1
2019-05-18T15:54:54.877Z,21.7
2019-05-18T15:59:54.546Z,21.4
2019-05-18T16:04:54.625Z,21
2019-05-18T16:09:54.684Z,20.8
2019-05-18T16:14:54.728Z,20.2
2019-05-18T16:19:54.514Z,20.1
2019-05-18T16:24:54.632Z,20.2
2019-05-18T16:29:54.518Z,20.3
2019-05-18T16:34:54.477Z,20.2
2019-05-18T16:39:54.893Z,20.2
2019-05-18T16:44:54.663Z,20.5
2019-05-18T16:49:54.565Z,20.6
2019-05-18T16:54:54.662Z,20.6
2019-05-18T16:59:54.766Z,20.3
2019-05-18T17:04:54.673Z,19.9
2019-05-18T17:09:54.349Z,19.6
2019-05-18T17:14:54.545Z,19.7
2019-05-18T17:19:54.685Z,19.6
2019-05-18T17:24:54.385Z,19.3
2019-05-18T17:29:54.622Z,19
2019-05-18T17:34:54.307Z,19.3
2019-05-18T17:39:54.474Z,19.3
2019-05-18T17:44:54.637Z,19.3
2019-05-18T17:49:54.618Z,19.1
2019-05-18T17:54:57.250Z,19
2019-05-18T17:59:54.443Z,18.8
2019-05-18T18:04:54.753Z,18.6
2019-05-18T18:09:59.258Z,18.3
2019-05-18T18:14:54.743Z,18.6
2019-05-18T19:10:15.883Z,17
2019-05-18T19:15:06.508Z,16.9
2019-05-18T19:20:35.117Z,17
2019-05-18T19:25:06.807Z,17.3
2019-05-18T19:30:09.766Z,17.1
2019-05-18T19:35:06.533Z,16.8
2019-05-18T19:40:06.428Z,16.8
2019-05-18T19:45:06.682Z,16.9
2019-05-18T19:50:06.323Z,17
2019-05-18T19:55:08.109Z,16.7
2019-05-18T20:00:06.687Z,16.6
2019-05-18T20:05:08.481Z,16.5
2019-05-18T20:10:06.694Z,16.3
2019-05-18T20:15:09.344Z,16.5
2019-05-18T20:20:06.496Z,16.6
2019-05-18T20:25:08.375Z,16.6
2019-05-18T20:30:06.861Z,16.2
2019-05-18T20:35:06.775Z,16.3
2019-05-18T20:40:06.548Z,16.3
2019-05-18T20:45:06.188Z,16
2019-05-18T20:50:06.176Z,16.2
2019-05-18T20:55:06.654Z,16.1
2019-05-18T21:00:06.441Z,15.9
2019-05-18T21:05:06.428Z,15.9
2019-05-18T21:10:06.590Z,15.9
2019-05-18T21:15:06.376Z,15.9
2019-05-18T21:20:06.622Z,16.1
2019-05-18T21:25:06.482Z,15.9
2019-05-18T21:30:06.179Z,15.8
2019-05-18T21:35:06.601Z,15.7
2019-05-18T21:40:06.322Z,15.6
2019-05-18T21:45:06.167Z,15.6
2019-05-18T21:50:06.257Z,15.6
2019-05-18T21:55:06.237Z,15.8
2019-05-18T22:00:06.433Z,15.6
2019-05-18T22:05:06.063Z,15.6
2019-05-18T22:10:06.502Z,15.4
2019-05-18T22:15:06.730Z,15.4
2019-05-18T22:20:06.377Z,15.3
2019-05-18T22:25:06.431Z,15.3
2019-05-18T22:30:06.744Z,15.4
2019-05-18T22:35:06.232Z,15.4
2019-05-18T22:40:06.071Z,15.7
2019-05-18T22:45:06.100Z,15.4
2019-05-18T22:50:17.422Z,15.6
2019-05-18T22:55:06.593Z,15.7
2019-05-18T23:00:07.152Z,15.8
2019-05-18T23:05:06.053Z,15.4
2019-05-18T23:10:06.440Z,15.4
2019-05-18T23:15:06.263Z,15.6
2019-05-18T23:20:06.389Z,15.5
2019-05-18T23:25:06.497Z,15.5
2019-05-18T23:30:07.266Z,15.3
2019-05-18T23:35:06.072Z,15.6
2019-05-18T23:40:06.275Z,15.5
2019-05-18T23:45:06.167Z,15.5
2019-05-18T23:50:06.597Z,15.6
2019-05-18T23:55:06.210Z,15.4
